sensor_id;sensor_type;location;lat;lon;timestamp;P1;durP1;ratioP1;P2;durP2;ratioP2
39924;SDS011;25592;49.986;11.618;2023-04-03T00:00:20;5.10;;;3.35;;
39924;SDS011;25592;49.986;11.618;2023-04-03T00:03:06;8.18;;;1.77;;
39924;SDS011;25592;49.986;11.618;2023-04-03T00:05:51;5.15;;;1.40;;
39924;SDS011;25592;49.986;11.618;2023-04-03T00:08:37;2.50;;;1.50;;
39924;SDS011;25592;49.986;11.618;2023-04-03T00:11:24;3.03;;;1.52;;
39924;SDS011;25592;49.986;11.618;2023-04-03T00:14:09;5.47;;;1.63;;
39924;SDS011;25592;49.986;11.618;2023-04-03T00:16:55;3.90;;;1.73;;
39924;SDS011;25592;49.986;11.618;2023-04-03T00:19:40;5.97;;;1.90;;
39924;SDS011;25592;49.986;11.618;2023-04-03T00:22:25;4.28;;;2.10;;
39924;SDS011;25592;49.986;11.618;2023-04-03T00:25:13;4.80;;;1.73;;
39924;SDS011;25592;49.986;11.618;2023-04-03T00:27:58;5.57;;;2.20;;
39924;SDS011;25592;49.986;11.618;2023-04-03T00:30:44;4.40;;;1.90;;
39924;SDS011;25592;49.986;11.618;2023-04-03T00:33:30;6.45;;;1.98;;
39924;SDS011;25592;49.986;11.618;2023-04-03T00:36:15;3.80;;;1.58;;
39924;SDS011;25592;49.986;11.618;2023-04-03T00:39:01;4.75;;;1.60;;
39924;SDS011;25592;49.986;11.618;2023-04-03T00:41:46;3.28;;;1.60;;
39924;SDS011;25592;49.986;11.618;2023-04-03T00:47:20;6.03;;;1.85;;
39924;SDS011;25592;49.986;11.618;2023-04-03T00:50:05;4.45;;;1.73;;
39924;SDS011;25592;49.986;11.618;2023-04-03T00:52:51;4.30;;;1.92;;
39924;SDS011;25592;49.986;11.618;2023-04-03T00:55:37;5.80;;;1.85;;
39924;SDS011;25592;49.986;11.618;2023-04-03T00:58:26;8.02;;;1.73;;
39924;SDS011;25592;49.986;11.618;2023-04-03T01:01:18;4.57;;;1.77;;
39924;SDS011;25592;49.986;11.618;2023-04-03T01:04:26;5.47;;;1.88;;
39924;SDS011;25592;49.986;11.618;2023-04-03T01:10:09;7.90;;;3.78;;
39924;SDS011;25592;49.986;11.618;2023-04-03T01:12:58;3.65;;;1.92;;
39924;SDS011;25592;49.986;11.618;2023-04-03T01:15:45;7.57;;;2.00;;
39924;SDS011;25592;49.986;11.618;2023-04-03T01:18:31;6.32;;;1.77;;
39924;SDS011;25592;49.986;11.618;2023-04-03T01:21:26;4.22;;;2.05;;
39924;SDS011;25592;49.986;11.618;2023-04-03T01:24:38;4.10;;;1.98;;
39924;SDS011;25592;49.986;11.618;2023-04-03T01:27:23;3.85;;;1.65;;
39924;SDS011;25592;49.986;11.618;2023-04-03T01:30:10;4.85;;;2.22;;
39924;SDS011;25592;49.986;11.618;2023-04-03T01:32:58;4.70;;;1.50;;
39924;SDS011;25592;49.986;11.618;2023-04-03T01:35:44;4.50;;;2.10;;
39924;SDS011;25592;49.986;11.618;2023-04-03T01:38:29;5.63;;;2.10;;
39924;SDS011;25592;49.986;11.618;2023-04-03T01:41:15;5.97;;;2.70;;
39924;SDS011;25592;49.986;11.618;2023-04-03T01:44:01;5.47;;;2.15;;
39924;SDS011;25592;49.986;11.618;2023-04-03T01:46:47;4.70;;;2.45;;
39924;SDS011;25592;49.986;11.618;2023-04-03T01:49:32;9.00;;;2.60;;
39924;SDS011;25592;49.986;11.618;2023-04-03T01:52:17;6.47;;;2.13;;
39924;SDS011;25592;49.986;11.618;2023-04-03T01:55:03;4.05;;;2.60;;
39924;SDS011;25592;49.986;11.618;2023-04-03T01:57:49;6.70;;;2.05;;
39924;SDS011;25592;49.986;11.618;2023-04-03T02:00:34;4.38;;;2.22;;
39924;SDS011;25592;49.986;11.618;2023-04-03T02:03:21;6.15;;;2.42;;
39924;SDS011;25592;49.986;11.618;2023-04-03T02:06:07;6.13;;;2.17;;
39924;SDS011;25592;49.986;11.618;2023-04-03T02:08:52;6.95;;;2.83;;
39924;SDS011;25592;49.986;11.618;2023-04-03T02:11:37;5.20;;;2.50;;
39924;SDS011;25592;49.986;11.618;2023-04-03T02:14:23;6.30;;;2.70;;
39924;SDS011;25592;49.986;11.618;2023-04-03T02:17:08;6.03;;;2.95;;
39924;SDS011;25592;49.986;11.618;2023-04-03T02:19:54;4.78;;;2.80;;
39924;SDS011;25592;49.986;11.618;2023-04-03T02:22:39;6.65;;;2.88;;
39924;SDS011;25592;49.986;11.618;2023-04-03T02:25:24;6.65;;;2.20;;
39924;SDS011;25592;49.986;11.618;2023-04-03T02:28:10;6.90;;;2.30;;
39924;SDS011;25592;49.986;11.618;2023-04-03T02:30:56;6.03;;;2.50;;
39924;SDS011;25592;49.986;11.618;2023-04-03T02:33:41;4.65;;;2.60;;
39924;SDS011;25592;49.986;11.618;2023-04-03T02:36:27;5.68;;;2.28;;
39924;SDS011;25592;49.986;11.618;2023-04-03T02:39:15;6.07;;;2.40;;
39924;SDS011;25592;49.986;11.618;2023-04-03T02:42:00;6.80;;;2.22;;
39924;SDS011;25592;49.986;11.618;2023-04-03T02:44:45;3.75;;;2.47;;
39924;SDS011;25592;49.986;11.618;2023-04-03T02:47:31;7.38;;;2.60;;
39924;SDS011;25592;49.986;11.618;2023-04-03T02:50:16;5.07;;;2.33;;
39924;SDS011;25592;49.986;11.618;2023-04-03T02:53:01;5.65;;;2.25;;
39924;SDS011;25592;49.986;11.618;2023-04-03T02:55:47;4.97;;;2.38;;
39924;SDS011;25592;49.986;11.618;2023-04-03T02:58:32;7.78;;;2.50;;
39924;SDS011;25592;49.986;11.618;2023-04-03T03:01:18;4.78;;;1.83;;
39924;SDS011;25592;49.986;11.618;2023-04-03T03:04:03;5.18;;;2.53;;
39924;SDS011;25592;49.986;11.618;2023-04-03T03:06:49;3.35;;;1.67;;
39924;SDS011;25592;49.986;11.618;2023-04-03T03:09:35;4.93;;;2.05;;
39924;SDS011;25592;49.986;11.618;2023-04-03T03:12:20;4.18;;;1.90;;
39924;SDS011;25592;49.986;11.618;2023-04-03T03:15:07;5.90;;;3.55;;
39924;SDS011;25592;49.986;11.618;2023-04-03T03:17:52;4.30;;;2.10;;
39924;SDS011;25592;49.986;11.618;2023-04-03T03:20:38;5.43;;;1.80;;
39924;SDS011;25592;49.986;11.618;2023-04-03T03:23:24;6.13;;;2.00;;
39924;SDS011;25592;49.986;11.618;2023-04-03T03:26:10;7.38;;;2.83;;
39924;SDS011;25592;49.986;11.618;2023-04-03T03:28:56;5.38;;;2.10;;
39924;SDS011;25592;49.986;11.618;2023-04-03T03:31:41;5.47;;;1.70;;
39924;SDS011;25592;49.986;11.618;2023-04-03T03:34:27;3.85;;;1.75;;
39924;SDS011;25592;49.986;11.618;2023-04-03T03:37:12;7.85;;;2.30;;
39924;SDS011;25592;49.986;11.618;2023-04-03T03:39:57;4.57;;;2.10;;
39924;SDS011;25592;49.986;11.618;2023-04-03T03:42:43;3.83;;;1.52;;
39924;SDS011;25592;49.986;11.618;2023-04-03T03:45:28;4.85;;;2.55;;
39924;SDS011;25592;49.986;11.618;2023-04-03T03:48:14;11.43;;;1.73;;
39924;SDS011;25592;49.986;11.618;2023-04-03T03:50:59;5.20;;;2.13;;
39924;SDS011;25592;49.986;11.618;2023-04-03T03:53:45;8.23;;;2.00;;
39924;SDS011;25592;49.986;11.618;2023-04-03T03:56:30;6.22;;;1.80;;
39924;SDS011;25592;49.986;11.618;2023-04-03T03:59:16;3.75;;;1.63;;
39924;SDS011;25592;49.986;11.618;2023-04-03T04:02:01;4.97;;;1.80;;
39924;SDS011;25592;49.986;11.618;2023-04-03T04:04:48;5.15;;;2.97;;
39924;SDS011;25592;49.986;11.618;2023-04-03T04:07:33;10.90;;;2.38;;
39924;SDS011;25592;49.986;11.618;2023-04-03T04:10:19;5.90;;;2.10;;
39924;SDS011;25592;49.986;11.618;2023-04-03T04:13:04;6.43;;;2.25;;
39924;SDS011;25592;49.986;11.618;2023-04-03T04:15:50;5.03;;;1.80;;
39924;SDS011;25592;49.986;11.618;2023-04-03T04:18:35;6.45;;;2.00;;
39924;SDS011;25592;49.986;11.618;2023-04-03T04:21:21;7.40;;;2.70;;
39924;SDS011;25592;49.986;11.618;2023-04-03T04:24:06;4.53;;;2.50;;
39924;SDS011;25592;49.986;11.618;2023-04-03T04:26:52;5.22;;;2.95;;
39924;SDS011;25592;49.986;11.618;2023-04-03T04:29:38;8.00;;;2.53;;
39924;SDS011;25592;49.986;11.618;2023-04-03T04:32:23;5.03;;;2.10;;
39924;SDS011;25592;49.986;11.618;2023-04-03T04:35:09;6.07;;;2.60;;
39924;SDS011;25592;49.986;11.618;2023-04-03T04:37:54;6.93;;;2.80;;
39924;SDS011;25592;49.986;11.618;2023-04-03T04:40:40;6.90;;;2.92;;
39924;SDS011;25592;49.986;11.618;2023-04-03T04:43:26;6.78;;;2.55;;
39924;SDS011;25592;49.986;11.618;2023-04-03T04:46:11;5.25;;;2.67;;
39924;SDS011;25592;49.986;11.618;2023-04-03T04:48:56;8.48;;;2.58;;
39924;SDS011;25592;49.986;11.618;2023-04-03T04:51:42;6.50;;;2.78;;
39924;SDS011;25592;49.986;11.618;2023-04-03T04:54:35;4.50;;;2.60;;
39924;SDS011;25592;49.986;11.618;2023-04-03T04:57:21;9.35;;;2.88;;
39924;SDS011;25592;49.986;11.618;2023-04-03T05:00:06;9.88;;;3.60;;
39924;SDS011;25592;49.986;11.618;2023-04-03T05:02:52;5.75;;;2.83;;
39924;SDS011;25592;49.986;11.618;2023-04-03T05:05:38;4.55;;;2.17;;
39924;SDS011;25592;49.986;11.618;2023-04-03T05:08:24;7.78;;;3.17;;
39924;SDS011;25592;49.986;11.618;2023-04-03T05:11:10;7.20;;;2.92;;
39924;SDS011;25592;49.986;11.618;2023-04-03T05:13:55;4.43;;;2.70;;
39924;SDS011;25592;49.986;11.618;2023-04-03T05:16:41;7.97;;;3.22;;
39924;SDS011;25592;49.986;11.618;2023-04-03T05:19:27;10.60;;;3.13;;
39924;SDS011;25592;49.986;11.618;2023-04-03T05:22:12;6.13;;;2.70;;
39924;SDS011;25592;49.986;11.618;2023-04-03T05:24:57;6.90;;;3.00;;
39924;SDS011;25592;49.986;11.618;2023-04-03T05:27:43;9.43;;;3.65;;
39924;SDS011;25592;49.986;11.618;2023-04-03T05:30:28;8.73;;;3.17;;
39924;SDS011;25592;49.986;11.618;2023-04-03T05:33:14;4.63;;;2.88;;
39924;SDS011;25592;49.986;11.618;2023-04-03T05:36:05;7.28;;;3.05;;
39924;SDS011;25592;49.986;11.618;2023-04-03T05:38:52;6.95;;;3.05;;
39924;SDS011;25592;49.986;11.618;2023-04-03T05:41:37;6.63;;;2.70;;
39924;SDS011;25592;49.986;11.618;2023-04-03T05:44:23;6.55;;;3.03;;
39924;SDS011;25592;49.986;11.618;2023-04-03T05:47:08;7.35;;;2.70;;
39924;SDS011;25592;49.986;11.618;2023-04-03T05:49:54;7.32;;;2.80;;
39924;SDS011;25592;49.986;11.618;2023-04-03T05:52:40;8.63;;;3.00;;
39924;SDS011;25592;49.986;11.618;2023-04-03T05:55:30;6.82;;;2.78;;
39924;SDS011;25592;49.986;11.618;2023-04-03T05:58:15;8.13;;;2.72;;
39924;SDS011;25592;49.986;11.618;2023-04-03T06:01:01;4.90;;;2.83;;
39924;SDS011;25592;49.986;11.618;2023-04-03T06:03:46;6.88;;;2.80;;
39924;SDS011;25592;49.986;11.618;2023-04-03T06:06:49;4.30;;;2.78;;
39924;SDS011;25592;49.986;11.618;2023-04-03T06:09:36;7.82;;;3.38;;
39924;SDS011;25592;49.986;11.618;2023-04-03T06:12:22;8.20;;;3.15;;
39924;SDS011;25592;49.986;11.618;2023-04-03T06:15:08;7.40;;;2.75;;
39924;SDS011;25592;49.986;11.618;2023-04-03T06:17:54;6.95;;;3.45;;
39924;SDS011;25592;49.986;11.618;2023-04-03T06:20:40;4.30;;;2.35;;
39924;SDS011;25592;49.986;11.618;2023-04-03T06:23:25;6.60;;;3.22;;
39924;SDS011;25592;49.986;11.618;2023-04-03T06:26:10;11.43;;;3.35;;
39924;SDS011;25592;49.986;11.618;2023-04-03T06:28:56;9.27;;;3.33;;
39924;SDS011;25592;49.986;11.618;2023-04-03T06:31:41;7.03;;;3.35;;
39924;SDS011;25592;49.986;11.618;2023-04-03T06:34:27;8.13;;;3.03;;
39924;SDS011;25592;49.986;11.618;2023-04-03T06:37:20;7.20;;;3.05;;
39924;SDS011;25592;49.986;11.618;2023-04-03T06:40:06;5.68;;;3.03;;
39924;SDS011;25592;49.986;11.618;2023-04-03T06:42:55;7.45;;;3.00;;
39924;SDS011;25592;49.986;11.618;2023-04-03T06:45:41;5.63;;;2.97;;
39924;SDS011;25592;49.986;11.618;2023-04-03T06:48:26;9.52;;;3.00;;
39924;SDS011;25592;49.986;11.618;2023-04-03T06:51:19;5.30;;;2.92;;
39924;SDS011;25592;49.986;11.618;2023-04-03T06:54:05;6.80;;;4.00;;
39924;SDS011;25592;49.986;11.618;2023-04-03T06:56:52;9.70;;;3.15;;
39924;SDS011;25592;49.986;11.618;2023-04-03T06:59:38;6.50;;;2.97;;
39924;SDS011;25592;49.986;11.618;2023-04-03T07:02:23;13.73;;;3.03;;
39924;SDS011;25592;49.986;11.618;2023-04-03T07:05:09;7.22;;;2.80;;
39924;SDS011;25592;49.986;11.618;2023-04-03T07:07:54;4.90;;;2.95;;
39924;SDS011;25592;49.986;11.618;2023-04-03T07:10:40;10.00;;;3.80;;
39924;SDS011;25592;49.986;11.618;2023-04-03T07:13:25;7.60;;;2.72;;
39924;SDS011;25592;49.986;11.618;2023-04-03T07:16:11;5.70;;;3.00;;
39924;SDS011;25592;49.986;11.618;2023-04-03T07:18:56;9.65;;;3.03;;
39924;SDS011;25592;49.986;11.618;2023-04-03T07:21:42;8.55;;;3.53;;
39924;SDS011;25592;49.986;11.618;2023-04-03T07:24:28;6.90;;;2.97;;
39924;SDS011;25592;49.986;11.618;2023-04-03T07:27:13;8.40;;;2.47;;
39924;SDS011;25592;49.986;11.618;2023-04-03T07:29:59;7.15;;;2.90;;
39924;SDS011;25592;49.986;11.618;2023-04-03T07:32:44;7.97;;;2.80;;
39924;SDS011;25592;49.986;11.618;2023-04-03T07:35:30;8.63;;;2.80;;
39924;SDS011;25592;49.986;11.618;2023-04-03T07:38:16;6.72;;;3.08;;
39924;SDS011;25592;49.986;11.618;2023-04-03T07:41:01;8.75;;;2.92;;
39924;SDS011;25592;49.986;11.618;2023-04-03T07:43:48;9.05;;;3.53;;
39924;SDS011;25592;49.986;11.618;2023-04-03T07:46:34;7.07;;;3.10;;
39924;SDS011;25592;49.986;11.618;2023-04-03T07:49:20;8.00;;;3.00;;
39924;SDS011;25592;49.986;11.618;2023-04-03T07:52:07;7.25;;;3.33;;
39924;SDS011;25592;49.986;11.618;2023-04-03T07:54:53;6.40;;;3.72;;
39924;SDS011;25592;49.986;11.618;2023-04-03T07:57:38;6.65;;;3.28;;
39924;SDS011;25592;49.986;11.618;2023-04-03T08:00:24;5.70;;;2.90;;
39924;SDS011;25592;49.986;11.618;2023-04-03T08:03:10;6.60;;;3.22;;
39924;SDS011;25592;49.986;11.618;2023-04-03T08:06:00;5.43;;;3.58;;
39924;SDS011;25592;49.986;11.618;2023-04-03T08:08:51;7.53;;;2.90;;
39924;SDS011;25592;49.986;11.618;2023-04-03T08:11:38;4.80;;;2.38;;
39924;SDS011;25592;49.986;11.618;2023-04-03T08:14:24;5.45;;;2.47;;
39924;SDS011;25592;49.986;11.618;2023-04-03T08:17:09;7.95;;;2.65;;
39924;SDS011;25592;49.986;11.618;2023-04-03T08:19:56;6.05;;;2.38;;
39924;SDS011;25592;49.986;11.618;2023-04-03T08:22:41;8.65;;;2.72;;
39924;SDS011;25592;49.986;11.618;2023-04-03T08:25:27;5.20;;;2.25;;
39924;SDS011;25592;49.986;11.618;2023-04-03T08:28:14;4.70;;;2.35;;
39924;SDS011;25592;49.986;11.618;2023-04-03T08:31:03;7.95;;;3.03;;
39924;SDS011;25592;49.986;11.618;2023-04-03T08:33:50;7.97;;;2.80;;
39924;SDS011;25592;49.986;11.618;2023-04-03T08:36:36;6.15;;;3.03;;
39924;SDS011;25592;49.986;11.618;2023-04-03T08:39:22;6.95;;;2.90;;
39924;SDS011;25592;49.986;11.618;2023-04-03T08:45:50;8.13;;;3.13;;
39924;SDS011;25592;49.986;11.618;2023-04-03T08:48:36;4.68;;;2.40;;
39924;SDS011;25592;49.986;11.618;2023-04-03T08:51:25;5.43;;;2.60;;
39924;SDS011;25592;49.986;11.618;2023-04-03T08:54:21;6.50;;;2.40;;
39924;SDS011;25592;49.986;11.618;2023-04-03T08:57:26;4.82;;;2.35;;
39924;SDS011;25592;49.986;11.618;2023-04-03T09:00:25;5.45;;;2.35;;
39924;SDS011;25592;49.986;11.618;2023-04-03T09:03:15;5.05;;;2.45;;
39924;SDS011;25592;49.986;11.618;2023-04-03T09:09:09;6.35;;;1.92;;
39924;SDS011;25592;49.986;11.618;2023-04-03T09:12:24;4.10;;;1.90;;
39924;SDS011;25592;49.986;11.618;2023-04-03T09:15:17;6.65;;;2.33;;
39924;SDS011;25592;49.986;11.618;2023-04-03T09:18:41;8.02;;;2.30;;
39924;SDS011;25592;49.986;11.618;2023-04-03T09:21:32;7.57;;;2.08;;
39924;SDS011;25592;49.986;11.618;2023-04-03T09:24:22;3.40;;;1.80;;
39924;SDS011;25592;49.986;11.618;2023-04-03T09:27:09;4.55;;;2.63;;
39924;SDS011;25592;49.986;11.618;2023-04-03T09:29:56;5.15;;;2.22;;
39924;SDS011;25592;49.986;11.618;2023-04-03T09:32:44;3.55;;;1.63;;
39924;SDS011;25592;49.986;11.618;2023-04-03T09:35:33;3.85;;;1.33;;
39924;SDS011;25592;49.986;11.618;2023-04-03T09:38:32;5.32;;;1.98;;
39924;SDS011;25592;49.986;11.618;2023-04-03T09:41:19;5.70;;;1.90;;
39924;SDS011;25592;49.986;11.618;2023-04-03T09:44:17;6.07;;;1.92;;
39924;SDS011;25592;49.986;11.618;2023-04-03T09:47:22;7.07;;;1.92;;
39924;SDS011;25592;49.986;11.618;2023-04-03T09:52:58;4.75;;;1.30;;
39924;SDS011;25592;49.986;11.618;2023-04-03T09:55:43;4.57;;;1.80;;
39924;SDS011;25592;49.986;11.618;2023-04-03T09:58:33;6.43;;;1.80;;
39924;SDS011;25592;49.986;11.618;2023-04-03T10:01:36;6.25;;;1.80;;
39924;SDS011;25592;49.986;11.618;2023-04-03T10:04:22;4.43;;;1.63;;
39924;SDS011;25592;49.986;11.618;2023-04-03T10:13:04;3.20;;;1.42;;
39924;SDS011;25592;49.986;11.618;2023-04-03T10:16:09;9.38;;;1.85;;
39924;SDS011;25592;49.986;11.618;2023-04-03T10:25:36;6.13;;;1.98;;
39924;SDS011;25592;49.986;11.618;2023-04-03T10:34:44;5.03;;;1.58;;
39924;SDS011;25592;49.986;11.618;2023-04-03T10:40:57;4.00;;;1.70;;
39924;SDS011;25592;49.986;11.618;2023-04-03T10:47:17;5.20;;;1.55;;
39924;SDS011;25592;49.986;11.618;2023-04-03T10:53:25;3.53;;;1.65;;
39924;SDS011;25592;49.986;11.618;2023-04-03T10:59:14;4.60;;;1.67;;
39924;SDS011;25592;49.986;11.618;2023-04-03T11:02:18;6.55;;;1.63;;
39924;SDS011;25592;49.986;11.618;2023-04-03T11:11:25;3.83;;;1.10;;
39924;SDS011;25592;49.986;11.618;2023-04-03T11:14:17;4.60;;;1.70;;
39924;SDS011;25592;49.986;11.618;2023-04-03T11:20:01;4.38;;;1.50;;
39924;SDS011;25592;49.986;11.618;2023-04-03T11:25:50;6.10;;;2.08;;
39924;SDS011;25592;49.986;11.618;2023-04-03T11:28:39;4.63;;;1.48;;
39924;SDS011;25592;49.986;11.618;2023-04-03T11:31:48;4.38;;;1.60;;
39924;SDS011;25592;49.986;11.618;2023-04-03T11:34:49;4.60;;;1.30;;
39924;SDS011;25592;49.986;11.618;2023-04-03T11:37:46;4.35;;;1.65;;
39924;SDS011;25592;49.986;11.618;2023-04-03T11:40:35;3.42;;;1.55;;
39924;SDS011;25592;49.986;11.618;2023-04-03T11:43:23;3.55;;;1.40;;
39924;SDS011;25592;49.986;11.618;2023-04-03T11:46:14;5.00;;;1.50;;
39924;SDS011;25592;49.986;11.618;2023-04-03T11:49:01;4.95;;;1.70;;
39924;SDS011;25592;49.986;11.618;2023-04-03T11:51:46;3.58;;;1.73;;
39924;SDS011;25592;49.986;11.618;2023-04-03T11:54:42;7.22;;;1.90;;
39924;SDS011;25592;49.986;11.618;2023-04-03T11:58:11;3.78;;;1.50;;
39924;SDS011;25592;49.986;11.618;2023-04-03T12:09:26;3.90;;;1.65;;
39924;SDS011;25592;49.986;11.618;2023-04-03T12:12:30;6.15;;;1.85;;
39924;SDS011;25592;49.986;11.618;2023-04-03T12:15:26;4.15;;;1.40;;
39924;SDS011;25592;49.986;11.618;2023-04-03T12:18:53;4.57;;;1.73;;
39924;SDS011;25592;49.986;11.618;2023-04-03T12:22:04;5.65;;;1.77;;
39924;SDS011;25592;49.986;11.618;2023-04-03T12:24:52;3.03;;;1.25;;
39924;SDS011;25592;49.986;11.618;2023-04-03T12:27:38;5.88;;;1.50;;
39924;SDS011;25592;49.986;11.618;2023-04-03T12:30:27;3.67;;;1.50;;
39924;SDS011;25592;49.986;11.618;2023-04-03T12:33:31;3.17;;;1.63;;
39924;SDS011;25592;49.986;11.618;2023-04-03T12:36:40;2.10;;;1.30;;
39924;SDS011;25592;49.986;11.618;2023-04-03T12:39:52;3.45;;;1.60;;
39924;SDS011;25592;49.986;11.618;2023-04-03T12:45:51;4.65;;;1.60;;
39924;SDS011;25592;49.986;11.618;2023-04-03T12:51:40;3.70;;;1.40;;
39924;SDS011;25592;49.986;11.618;2023-04-03T12:54:34;2.55;;;1.33;;
39924;SDS011;25592;49.986;11.618;2023-04-03T12:57:24;3.92;;;1.40;;
39924;SDS011;25592;49.986;11.618;2023-04-03T13:00:21;4.78;;;1.60;;
39924;SDS011;25592;49.986;11.618;2023-04-03T13:03:21;3.03;;;1.70;;
39924;SDS011;25592;49.986;11.618;2023-04-03T13:09:26;3.50;;;1.25;;
39924;SDS011;25592;49.986;11.618;2023-04-03T13:12:14;3.33;;;1.40;;
39924;SDS011;25592;49.986;11.618;2023-04-03T13:15:02;6.13;;;1.40;;
39924;SDS011;25592;49.986;11.618;2023-04-03T13:17:57;2.88;;;1.42;;
39924;SDS011;25592;49.986;11.618;2023-04-03T13:20:42;3.72;;;1.30;;
39924;SDS011;25592;49.986;11.618;2023-04-03T13:23:28;3.30;;;1.60;;
39924;SDS011;25592;49.986;11.618;2023-04-03T13:26:16;5.22;;;1.50;;
39924;SDS011;25592;49.986;11.618;2023-04-03T13:29:04;4.38;;;1.40;;
39924;SDS011;25592;49.986;11.618;2023-04-03T13:31:54;4.55;;;1.50;;
39924;SDS011;25592;49.986;11.618;2023-04-03T13:34:42;3.15;;;1.40;;
39924;SDS011;25592;49.986;11.618;2023-04-03T13:37:32;3.30;;;1.63;;
39924;SDS011;25592;49.986;11.618;2023-04-03T13:40:19;3.83;;;1.30;;
39924;SDS011;25592;49.986;11.618;2023-04-03T13:43:06;2.47;;;1.30;;
39924;SDS011;25592;49.986;11.618;2023-04-03T13:46:24;2.85;;;1.50;;
39924;SDS011;25592;49.986;11.618;2023-04-03T13:49:21;3.65;;;1.40;;
39924;SDS011;25592;49.986;11.618;2023-04-03T14:01:00;3.25;;;1.80;;
39924;SDS011;25592;49.986;11.618;2023-04-03T14:03:54;3.33;;;1.30;;
39924;SDS011;25592;49.986;11.618;2023-04-03T14:06:41;5.00;;;1.40;;
39924;SDS011;25592;49.986;11.618;2023-04-03T14:09:27;3.67;;;2.10;;
39924;SDS011;25592;49.986;11.618;2023-04-03T14:12:17;3.58;;;1.38;;
39924;SDS011;25592;49.986;11.618;2023-04-03T14:15:20;3.42;;;1.67;;
39924;SDS011;25592;49.986;11.618;2023-04-03T14:18:11;2.85;;;1.20;;
39924;SDS011;25592;49.986;11.618;2023-04-03T14:20:57;6.00;;;1.20;;
39924;SDS011;25592;49.986;11.618;2023-04-03T14:23:43;2.47;;;1.35;;
39924;SDS011;25592;49.986;11.618;2023-04-03T14:26:28;6.97;;;1.50;;
39924;SDS011;25592;49.986;11.618;2023-04-03T14:29:15;3.10;;;1.40;;
39924;SDS011;25592;49.986;11.618;2023-04-03T14:32:00;4.95;;;1.17;;
39924;SDS011;25592;49.986;11.618;2023-04-03T14:34:59;3.22;;;1.20;;
39924;SDS011;25592;49.986;11.618;2023-04-03T14:37:46;3.90;;;1.30;;
39924;SDS011;25592;49.986;11.618;2023-04-03T14:40:32;7.75;;;1.40;;
39924;SDS011;25592;49.986;11.618;2023-04-03T14:43:18;4.30;;;1.52;;
39924;SDS011;25592;49.986;11.618;2023-04-03T14:46:04;3.30;;;1.45;;
39924;SDS011;25592;49.986;11.618;2023-04-03T14:48:55;3.47;;;1.48;;
39924;SDS011;25592;49.986;11.618;2023-04-03T14:51:41;4.45;;;1.00;;
39924;SDS011;25592;49.986;11.618;2023-04-03T14:54:26;4.70;;;1.08;;
39924;SDS011;25592;49.986;11.618;2023-04-03T14:57:14;4.45;;;1.30;;
39924;SDS011;25592;49.986;11.618;2023-04-03T15:00:01;3.65;;;1.30;;
39924;SDS011;25592;49.986;11.618;2023-04-03T15:02:49;4.82;;;1.17;;
39924;SDS011;25592;49.986;11.618;2023-04-03T15:05:35;8.00;;;1.48;;
39924;SDS011;25592;49.986;11.618;2023-04-03T15:08:25;2.40;;;1.05;;
39924;SDS011;25592;49.986;11.618;2023-04-03T15:11:14;3.33;;;1.13;;
39924;SDS011;25592;49.986;11.618;2023-04-03T15:13:59;6.18;;;1.48;;
39924;SDS011;25592;49.986;11.618;2023-04-03T15:16:45;3.13;;;1.52;;
39924;SDS011;25592;49.986;11.618;2023-04-03T15:19:40;1.83;;;1.02;;
39924;SDS011;25592;49.986;11.618;2023-04-03T15:22:25;3.60;;;1.10;;
39924;SDS011;25592;49.986;11.618;2023-04-03T15:25:11;2.45;;;0.95;;
39924;SDS011;25592;49.986;11.618;2023-04-03T15:27:57;4.32;;;1.10;;
39924;SDS011;25592;49.986;11.618;2023-04-03T15:30:42;3.03;;;0.80;;
39924;SDS011;25592;49.986;11.618;2023-04-03T15:33:27;3.45;;;1.40;;
39924;SDS011;25592;49.986;11.618;2023-04-03T15:36:13;4.07;;;1.42;;
39924;SDS011;25592;49.986;11.618;2023-04-03T15:39:17;1.88;;;0.88;;
39924;SDS011;25592;49.986;11.618;2023-04-03T15:42:02;2.90;;;1.00;;
39924;SDS011;25592;49.986;11.618;2023-04-03T15:44:51;3.03;;;1.15;;
39924;SDS011;25592;49.986;11.618;2023-04-03T15:47:36;3.08;;;1.25;;
39924;SDS011;25592;49.986;11.618;2023-04-03T15:50:23;4.40;;;1.00;;
39924;SDS011;25592;49.986;11.618;2023-04-03T15:53:09;1.77;;;1.00;;
39924;SDS011;25592;49.986;11.618;2023-04-03T15:55:54;2.03;;;1.00;;
39924;SDS011;25592;49.986;11.618;2023-04-03T15:58:40;2.47;;;0.80;;
39924;SDS011;25592;49.986;11.618;2023-04-03T16:01:25;2.80;;;1.00;;
39924;SDS011;25592;49.986;11.618;2023-04-03T16:04:10;4.38;;;1.20;;
39924;SDS011;25592;49.986;11.618;2023-04-03T16:07:00;2.88;;;0.75;;
39924;SDS011;25592;49.986;11.618;2023-04-03T16:09:47;3.60;;;1.52;;
39924;SDS011;25592;49.986;11.618;2023-04-03T16:12:32;1.52;;;0.68;;
39924;SDS011;25592;49.986;11.618;2023-04-03T16:15:18;5.18;;;1.10;;
39924;SDS011;25592;49.986;11.618;2023-04-03T16:18:03;2.67;;;0.75;;
39924;SDS011;25592;49.986;11.618;2023-04-03T16:20:50;3.63;;;0.93;;
39924;SDS011;25592;49.986;11.618;2023-04-03T16:23:35;4.00;;;0.98;;
39924;SDS011;25592;49.986;11.618;2023-04-03T16:26:21;3.20;;;1.40;;
39924;SDS011;25592;49.986;11.618;2023-04-03T16:29:06;3.10;;;0.90;;
39924;SDS011;25592;49.986;11.618;2023-04-03T16:31:52;3.42;;;1.40;;
39924;SDS011;25592;49.986;11.618;2023-04-03T16:34:37;3.33;;;1.13;;
39924;SDS011;25592;49.986;11.618;2023-04-03T16:37:25;2.28;;;1.20;;
39924;SDS011;25592;49.986;11.618;2023-04-03T16:40:13;3.08;;;0.90;;
39924;SDS011;25592;49.986;11.618;2023-04-03T16:42:59;2.60;;;0.90;;
39924;SDS011;25592;49.986;11.618;2023-04-03T16:45:45;2.80;;;0.93;;
39924;SDS011;25592;49.986;11.618;2023-04-03T16:48:31;2.28;;;0.80;;
39924;SDS011;25592;49.986;11.618;2023-04-03T16:51:16;1.85;;;0.95;;
39924;SDS011;25592;49.986;11.618;2023-04-03T16:54:02;1.58;;;0.80;;
39924;SDS011;25592;49.986;11.618;2023-04-03T16:56:47;3.30;;;1.30;;
39924;SDS011;25592;49.986;11.618;2023-04-03T16:59:33;2.72;;;1.02;;
39924;SDS011;25592;49.986;11.618;2023-04-03T17:02:18;2.92;;;1.00;;
39924;SDS011;25592;49.986;11.618;2023-04-03T17:05:09;2.13;;;0.70;;
39924;SDS011;25592;49.986;11.618;2023-04-03T17:07:55;1.80;;;0.90;;
39924;SDS011;25592;49.986;11.618;2023-04-03T17:10:40;3.53;;;1.40;;
39924;SDS011;25592;49.986;11.618;2023-04-03T17:13:25;1.00;;;0.50;;
39924;SDS011;25592;49.986;11.618;2023-04-03T17:16:16;2.30;;;0.90;;
39924;SDS011;25592;49.986;11.618;2023-04-03T17:19:01;2.15;;;1.13;;
39924;SDS011;25592;49.986;11.618;2023-04-03T17:21:48;1.88;;;0.80;;
39924;SDS011;25592;49.986;11.618;2023-04-03T17:24:33;3.05;;;1.15;;
39924;SDS011;25592;49.986;11.618;2023-04-03T17:27:18;4.15;;;1.10;;
39924;SDS011;25592;49.986;11.618;2023-04-03T17:30:04;3.22;;;1.25;;
39924;SDS011;25592;49.986;11.618;2023-04-03T17:32:50;4.13;;;1.10;;
39924;SDS011;25592;49.986;11.618;2023-04-03T17:35:35;6.63;;;1.02;;
39924;SDS011;25592;49.986;11.618;2023-04-03T17:38:21;2.42;;;0.90;;
39924;SDS011;25592;49.986;11.618;2023-04-03T17:41:07;2.42;;;1.00;;
39924;SDS011;25592;49.986;11.618;2023-04-03T17:43:57;2.50;;;1.00;;
39924;SDS011;25592;49.986;11.618;2023-04-03T17:46:42;3.45;;;0.93;;
39924;SDS011;25592;49.986;11.618;2023-04-03T17:49:27;2.50;;;1.00;;
39924;SDS011;25592;49.986;11.618;2023-04-03T17:52:13;2.85;;;1.00;;
39924;SDS011;25592;49.986;11.618;2023-04-03T17:54:58;3.83;;;0.85;;
39924;SDS011;25592;49.986;11.618;2023-04-03T17:57:44;3.55;;;1.10;;
39924;SDS011;25592;49.986;11.618;2023-04-03T18:00:29;1.30;;;0.73;;
39924;SDS011;25592;49.986;11.618;2023-04-03T18:03:14;3.03;;;1.00;;